Time;durP1;ratioP1;P1;durP2;ratioP2;P2;SDS_P1;SDS_P2;PMS_P1;PMS_P2;Temp;Humidity;BMP_temperature;BMP_pressure;BME280_temperature;BME280_humidity;BME280_pressure;Samples;Min_cycle;Max_cycle;Signal;HPM_P1;HPM_P2
2022/08/07 00:02:04;;;;;;;2.17;1.73;;;17.10;99.90;;;;;;5052998;28;20293;-74
2022/08/07 00:04:31;;;;;;;2.70;1.67;;;17.00;99.90;;;;;;5050045;28;20795;-73
2022/08/07 00:06:59;;;;;;;2.25;1.67;;;17.00;99.90;;;;;;5057086;28;20228;-73
2022/08/07 00:09:25;;;;;;;3.53;1.93;;;16.90;99.90;;;;;;5061730;28;20221;-73
2022/08/07 00:11:54;;;;;;;2.55;1.63;;;16.90;99.90;;;;;;5053411;28;20206;-73
2022/08/07 00:14:21;;;;;;;4.67;1.97;;;16.90;99.90;;;;;;5052611;28;20640;-73
2022/08/07 00:16:48;;;;;;;3.27;1.57;;;16.90;99.90;;;;;;5054119;28;20244;-74
2022/08/07 00:19:14;;;;;;;1.30;1.20;;;16.80;99.90;;;;;;5052579;28;20572;-74
2022/08/07 00:21:41;;;;;;;2.57;1.80;;;16.80;99.90;;;;;;5052557;28;20245;-74
2022/08/07 00:24:10;;;;;;;3.70;1.57;;;16.80;99.90;;;;;;5067031;28;20217;-73
2022/08/07 00:26:37;;;;;;;2.73;1.43;;;16.80;99.90;;;;;;5052967;28;20202;-74
2022/08/07 00:29:04;;;;;;;3.60;1.73;;;16.80;99.90;;;;;;5052902;28;20621;-74
2022/08/07 00:31:30;;;;;;;2.53;1.70;;;16.80;99.90;;;;;;5053792;28;20701;-74
2022/08/07 00:33:57;;;;;;;6.90;2.00;;;16.80;99.90;;;;;;5066782;28;20209;-73
2022/08/07 00:36:24;;;;;;;4.07;1.70;;;16.70;99.90;;;;;;5053710;28;20210;-74
2022/08/07 00:38:51;;;;;;;2.30;1.30;;;16.80;99.90;;;;;;5052536;28;20202;-73
2022/08/07 00:41:26;;;;;;;3.23;1.30;;;16.70;99.90;;;;;;5056253;28;20209;-74
2022/08/07 00:43:53;;;;;;;3.80;1.63;;;16.70;99.90;;;;;;5064836;28;20607;-73
2022/08/07 00:46:20;;;;;;;2.97;1.70;;;16.70;99.90;;;;;;5049806;28;20228;-74
2022/08/07 00:48:46;;;;;;;2.07;1.37;;;16.70;99.90;;;;;;5053191;28;20206;-74
2022/08/07 00:51:14;;;;;;;4.40;1.43;;;16.70;99.90;;;;;;5053576;28;20685;-74
2022/08/07 00:53:41;;;;;;;2.67;1.40;;;16.70;99.90;;;;;;5057132;28;20601;-75
2022/08/07 00:56:10;;;;;;;4.10;1.60;;;16.60;99.90;;;;;;5053745;28;20221;-74
2022/08/07 00:58:42;;;;;;;2.63;1.53;;;16.60;99.90;;;;;;5039623;28;20202;-74
2022/08/07 01:01:09;;;;;;;4.20;1.83;;;16.60;99.90;;;;;;5053513;28;20260;-75
2022/08/07 01:03:36;;;;;;;3.07;1.57;;;16.60;99.90;;;;;;5053328;28;20202;-75
2022/08/07 01:06:03;;;;;;;3.30;1.73;;;16.60;99.90;;;;;;5050232;28;20214;-75
2022/08/07 01:08:30;;;;;;;3.40;1.63;;;16.50;99.90;;;;;;5050713;28;20225;-76
2022/08/07 01:10:57;;;;;;;4.63;1.87;;;16.50;99.90;;;;;;5053152;28;20230;-75
2022/08/07 01:13:24;;;;;;;1.73;1.40;;;16.50;99.90;;;;;;5052823;28;20654;-75
2022/08/07 01:15:53;;;;;;;3.23;1.70;;;16.50;99.90;;;;;;5050915;28;20205;-73
2022/08/07 01:18:20;;;;;;;3.70;1.60;;;16.40;99.90;;;;;;5050007;28;20673;-74
2022/08/07 01:20:56;;;;;;;3.03;1.60;;;16.40;99.90;;;;;;5052319;28;20234;-74
2022/08/07 01:23:24;;;;;;;3.27;1.63;;;16.50;99.90;;;;;;5052242;28;20225;-74
2022/08/07 01:25:52;;;;;;;3.20;1.70;;;16.40;99.90;;;;;;5057270;28;20665;-73
2022/08/07 01:28:18;;;;;;;2.37;1.83;;;16.40;99.90;;;;;;5057458;28;20217;-74
2022/08/07 01:30:47;;;;;;;6.07;1.70;;;16.40;99.90;;;;;;5051571;28;20248;-74
2022/08/07 01:33:13;;;;;;;6.33;1.90;;;16.40;99.90;;;;;;5059142;28;20206;-75
2022/08/07 01:35:42;;;;;;;1.97;1.60;;;16.40;99.90;;;;;;5060122;28;20213;-74
2022/08/07 01:38:09;;;;;;;3.63;1.80;;;16.40;99.90;;;;;;5054339;28;20208;-74
2022/08/07 01:40:39;;;;;;;4.40;1.80;;;16.40;99.90;;;;;;5049740;28;20225;-74
2022/08/07 01:43:06;;;;;;;4.07;1.80;;;16.30;99.90;;;;;;5049741;28;20209;-74
2022/08/07 01:45:34;;;;;;;3.27;1.50;;;16.30;99.90;;;;;;5051335;28;20214;-74
2022/08/07 01:48:01;;;;;;;2.87;1.60;;;16.30;99.90;;;;;;5051822;28;20214;-75
2022/08/07 01:50:29;;;;;;;3.10;1.60;;;16.30;99.90;;;;;;5051394;28;20229;-75
2022/08/07 01:52:58;;;;;;;4.50;1.80;;;16.30;99.90;;;;;;5052283;28;20625;-75
2022/08/07 01:55:28;;;;;;;2.93;1.60;;;16.30;99.90;;;;;;5047093;28;20213;-74
2022/08/07 01:58:00;;;;;;;5.90;2.00;;;16.30;99.90;;;;;;5050012;28;20206;-75
2022/08/07 02:00:30;;;;;;;2.67;1.50;;;16.40;99.90;;;;;;5039502;28;20643;-74
2022/08/07 02:03:01;;;;;;;3.13;1.90;;;16.30;99.90;;;;;;5052740;28;20210;-76
2022/08/07 02:05:33;;;;;;;2.27;1.43;;;16.30;99.90;;;;;;5052631;28;20202;-74
2022/08/07 02:08:03;;;;;;;2.60;1.60;;;16.30;99.90;;;;;;5051803;28;20278;-74
2022/08/07 02:10:32;;;;;;;2.73;1.50;;;16.30;99.90;;;;;;5039084;28;20221;-72
2022/08/07 02:13:02;;;;;;;4.80;1.90;;;16.30;99.90;;;;;;5059591;28;20206;-72
2022/08/07 02:15:31;;;;;;;3.30;1.77;;;16.30;99.90;;;;;;5049773;28;20213;-72
2022/08/07 02:17:59;;;;;;;4.60;1.97;;;16.30;99.90;;;;;;5041084;28;20253;-72
2022/08/07 02:20:29;;;;;;;3.03;2.00;;;16.30;99.90;;;;;;5051389;28;20202;-72
2022/08/07 02:23:00;;;;;;;2.33;1.60;;;16.30;99.90;;;;;;5051735;28;20241;-74
2022/08/07 02:25:29;;;;;;;4.13;1.60;;;16.30;99.90;;;;;;5054596;28;20577;-73
2022/08/07 02:27:58;;;;;;;5.03;1.67;;;16.30;99.90;;;;;;5051526;28;20683;-73
2022/08/07 02:30:28;;;;;;;2.63;1.67;;;16.30;99.90;;;;;;5051334;28;20222;-73
2022/08/07 02:32:57;;;;;;;2.27;1.60;;;16.30;99.90;;;;;;5055999;28;20193;-72
2022/08/07 02:35:25;;;;;;;2.67;1.60;;;16.40;99.90;;;;;;5058932;28;20198;-73
2022/08/07 02:37:54;;;;;;;2.80;1.40;;;16.30;99.90;;;;;;5050441;28;20209;-73
2022/08/07 02:40:20;;;;;;;3.40;1.70;;;16.40;99.90;;;;;;5051765;28;20642;-73
2022/08/07 02:42:48;;;;;;;2.73;1.80;;;16.30;99.90;;;;;;5052613;28;20218;-73
2022/08/07 02:45:18;;;;;;;2.50;1.53;;;16.30;99.90;;;;;;5061238;28;20221;-73
2022/08/07 02:47:48;;;;;;;2.03;1.50;;;16.40;99.90;;;;;;5050880;28;20217;-73
2022/08/07 02:50:15;;;;;;;2.77;1.83;;;16.40;99.90;;;;;;5050856;28;20221;-74
2022/08/07 02:52:44;;;;;;;2.87;1.73;;;16.40;99.90;;;;;;5049507;28;20202;-73
2022/08/07 02:55:17;;;;;;;3.77;1.70;;;16.30;99.90;;;;;;5051527;28;20213;-73
2022/08/07 02:57:46;;;;;;;1.90;1.40;;;16.30;99.90;;;;;;5051162;28;20206;-73
2022/08/07 03:00:14;;;;;;;1.87;1.77;;;16.30;99.90;;;;;;5052239;28;20189;-74
2022/08/07 03:02:45;;;;;;;2.67;1.67;;;16.30;99.90;;;;;;5050694;28;20212;-73
2022/08/07 03:05:15;;;;;;;3.13;1.97;;;16.30;99.90;;;;;;5051760;28;20213;-74
2022/08/07 03:07:44;;;;;;;3.83;1.63;;;16.30;99.90;;;;;;5056155;28;20202;-73
2022/08/07 03:10:11;;;;;;;3.67;2.03;;;16.30;99.90;;;;;;5050715;28;20237;-74
2022/08/07 03:12:39;;;;;;;3.00;1.90;;;16.30;99.90;;;;;;5051442;28;20212;-74
2022/08/07 03:15:07;;;;;;;4.50;1.73;;;16.30;99.90;;;;;;5048994;28;20198;-72
2022/08/07 03:17:36;;;;;;;5.07;1.83;;;16.20;99.90;;;;;;5058954;28;20209;-71
2022/08/07 03:20:03;;;;;;;6.73;1.83;;;16.30;99.90;;;;;;5045297;28;20218;-72
2022/08/07 03:22:32;;;;;;;4.50;1.67;;;16.20;99.90;;;;;;5038283;28;20230;-73
2022/08/07 03:24:59;;;;;;;2.40;1.70;;;16.30;99.90;;;;;;5050044;28;20548;-72
2022/08/07 03:27:26;;;;;;;2.43;1.80;;;16.20;99.90;;;;;;5046957;28;20732;-73
2022/08/07 03:29:55;;;;;;;3.27;1.77;;;16.20;99.90;;;;;;5047723;28;20241;-73
2022/08/07 03:32:25;;;;;;;2.67;1.77;;;16.20;99.90;;;;;;5050947;28;20805;-73
2022/08/07 03:34:57;;;;;;;2.10;1.50;;;16.20;99.90;;;;;;5044740;28;20205;-74
2022/08/07 03:37:25;;;;;;;2.73;1.50;;;16.20;99.90;;;;;;5057668;28;20219;-74
2022/08/07 03:39:54;;;;;;;2.27;1.90;;;16.20;99.90;;;;;;5049342;28;20612;-73
2022/08/07 03:42:21;;;;;;;5.23;1.67;;;16.30;99.90;;;;;;5048779;28;20217;-73
2022/08/07 03:44:48;;;;;;;3.47;1.73;;;16.30;99.90;;;;;;5060219;28;20214;-72
2022/08/07 03:47:15;;;;;;;1.87;1.53;;;16.30;99.90;;;;;;5054226;28;20205;-73
2022/08/07 03:49:43;;;;;;;2.97;1.63;;;16.40;99.90;;;;;;5052918;28;20658;-73
2022/08/07 03:52:11;;;;;;;1.97;1.50;;;16.40;99.90;;;;;;5054843;28;20217;-73
2022/08/07 03:54:38;;;;;;;3.97;1.87;;;16.40;99.90;;;;;;5053246;28;20213;-73
2022/08/07 03:57:07;;;;;;;4.00;1.93;;;16.40;99.90;;;;;;5053562;28;20206;-74
2022/08/07 03:59:34;;;;;;;3.07;1.60;;;16.50;99.90;;;;;;5051774;28;20214;-74
2022/08/07 04:02:01;;;;;;;3.10;1.53;;;16.50;99.90;;;;;;5046651;28;20679;-74
2022/08/07 04:04:28;;;;;;;3.10;1.47;;;16.50;99.90;;;;;;5054286;28;20202;-74
2022/08/07 04:06:55;;;;;;;3.60;1.52;;;16.60;99.90;;;;;;5058631;28;20201;-74
2022/08/07 04:09:22;;;;;;;1.90;1.43;;;16.60;99.90;;;;;;5063320;28;20209;-74
2022/08/07 04:11:50;;;;;;;7.43;1.57;;;16.60;99.90;;;;;;5054010;28;20624;-74
2022/08/07 04:14:20;;;;;;;4.87;1.67;;;16.70;99.90;;;;;;5052322;28;20210;-75
2022/08/07 04:16:47;;;;;;;1.97;1.77;;;16.80;99.90;;;;;;5050015;28;20297;-72
2022/08/07 04:19:14;;;;;;;3.17;1.60;;;16.80;99.90;;;;;;5064921;28;21222;-73
2022/08/07 04:21:41;;;;;;;4.77;1.50;;;16.90;99.90;;;;;;5053841;28;20217;-73
2022/08/07 04:24:11;;;;;;;1.77;1.50;;;16.90;99.90;;;;;;5067601;28;20213;-72
2022/08/07 04:26:39;;;;;;;5.23;1.70;;;17.00;99.90;;;;;;5040997;28;20778;-73
2022/08/07 04:29:08;;;;;;;2.47;1.70;;;17.00;99.90;;;;;;5055847;28;20201;-72
2022/08/07 04:31:37;;;;;;;2.70;1.37;;;17.10;99.90;;;;;;5051016;28;20237;-72
2022/08/07 04:34:04;;;;;;;2.70;1.30;;;17.20;99.90;;;;;;5051897;28;20658;-72
2022/08/07 04:36:31;;;;;;;3.38;1.60;;;17.30;99.90;;;;;;5055626;28;20670;-72
2022/08/07 04:38:58;;;;;;;1.52;1.33;;;17.30;99.90;;;;;;5062105;28;20544;-73
2022/08/07 04:41:25;;;;;;;1.80;1.40;;;17.40;99.90;;;;;;5058665;28;20214;-72
2022/08/07 04:43:54;;;;;;;2.78;1.30;;;17.50;99.90;;;;;;5063241;28;20218;-72
2022/08/07 04:46:30;;;;;;;2.67;1.57;;;17.50;99.90;;;;;;5053063;28;20198;-73
2022/08/07 04:49:09;;;;;;;2.38;1.65;;;17.60;99.90;;;;;;5053711;28;20197;-75
2022/08/07 04:51:48;;;;;;;3.65;1.50;;;17.60;99.90;;;;;;5050662;28;20210;-74
2022/08/07 04:54:22;;;;;;;3.45;1.38;;;17.70;99.90;;;;;;5053728;28;20221;-73
2022/08/07 04:56:53;;;;;;;1.85;1.55;;;17.80;99.90;;;;;;5053064;28;20205;-72
2022/08/07 04:59:28;;;;;;;2.10;1.33;;;17.90;99.90;;;;;;5052137;28;20206;-72
2022/08/07 05:02:01;;;;;;;3.25;1.42;;;17.90;99.90;;;;;;5055532;28;20216;-73
2022/08/07 05:04:37;;;;;;;2.88;1.60;;;17.90;99.90;;;;;;5053296;28;20216;-74
2022/08/07 05:07:13;;;;;;;3.17;1.67;;;18.00;99.90;;;;;;5058658;28;20211;-73
2022/08/07 05:09:50;;;;;;;3.20;1.45;;;18.00;99.90;;;;;;5056562;28;20216;-72
2022/08/07 05:12:23;;;;;;;4.03;2.10;;;18.10;99.90;;;;;;5039422;28;20232;-73
2022/08/07 05:14:53;;;;;;;6.25;2.15;;;18.20;99.90;;;;;;5053383;28;20673;-73
2022/08/07 05:17:22;;;;;;;4.00;2.10;;;18.20;99.90;;;;;;5059436;28;20208;-73
2022/08/07 05:19:51;;;;;;;4.38;2.45;;;18.20;99.90;;;;;;5059719;28;20296;-71
2022/08/07 05:22:21;;;;;;;3.17;2.10;;;18.20;99.90;;;;;;5056367;28;20691;-70
2022/08/07 05:24:49;;;;;;;3.97;2.55;;;18.20;99.90;;;;;;5054176;28;20210;-72
2022/08/07 05:27:18;;;;;;;9.40;2.22;;;18.20;99.90;;;;;;5052655;28;20823;-72
2022/08/07 05:29:47;;;;;;;3.15;2.03;;;18.30;99.90;;;;;;5053330;28;20212;-72
2022/08/07 05:32:17;;;;;;;3.20;2.03;;;18.40;99.90;;;;;;5054531;28;20241;-72
2022/08/07 05:34:45;;;;;;;4.50;2.17;;;18.40;99.90;;;;;;5052840;28;20562;-73
2022/08/07 05:37:14;;;;;;;4.80;2.33;;;18.30;99.90;;;;;;5052346;28;20198;-73
2022/08/07 05:39:42;;;;;;;2.83;1.97;;;18.50;99.90;;;;;;5051021;28;20228;-72
2022/08/07 05:42:09;;;;;;;4.43;2.13;;;18.50;99.90;;;;;;5050868;28;20217;-72
2022/08/07 05:44:37;;;;;;;5.85;2.60;;;18.60;99.90;;;;;;5050686;28;20232;-71
2022/08/07 05:47:05;;;;;;;5.17;2.40;;;18.50;99.90;;;;;;5052367;28;20209;-71
2022/08/07 05:49:33;;;;;;;6.53;2.10;;;18.60;99.90;;;;;;5051257;28;20551;-72
2022/08/07 05:52:00;;;;;;;4.60;2.53;;;18.70;99.90;;;;;;5052424;28;20684;-72
2022/08/07 05:54:28;;;;;;;4.25;2.28;;;18.70;99.90;;;;;;5051760;28;20237;-72
2022/08/07 05:56:57;;;;;;;5.28;2.00;;;18.70;99.90;;;;;;5038446;28;20217;-72
2022/08/07 05:59:26;;;;;;;3.25;1.35;;;18.70;99.90;;;;;;5051537;28;20209;-74
2022/08/07 06:01:54;;;;;;;3.38;1.23;;;18.80;99.90;;;;;;5058948;28;20213;-73
2022/08/07 06:04:22;;;;;;;1.50;1.20;;;18.80;99.90;;;;;;5066122;28;20654;-75
2022/08/07 06:06:49;;;;;;;3.35;1.55;;;18.80;99.90;;;;;;5059921;28;20212;-74
2022/08/07 06:09:17;;;;;;;3.13;1.05;;;18.80;99.90;;;;;;5059969;28;20213;-74
2022/08/07 06:11:46;;;;;;;3.25;1.30;;;18.90;99.90;;;;;;5056901;28;20592;-75
2022/08/07 06:14:13;;;;;;;2.80;1.23;;;18.90;99.90;;;;;;5058425;28;20226;-73
2022/08/07 06:16:43;;;;;;;2.55;0.80;;;19.00;99.90;;;;;;5060494;28;20201;-77
2022/08/07 06:19:12;;;;;;;1.27;0.73;;;19.00;99.90;;;;;;5049793;28;20650;-75
2022/08/07 06:21:39;;;;;;;2.47;0.93;;;18.90;99.90;;;;;;5060462;28;20237;-74
2022/08/07 06:24:07;;;;;;;5.63;0.85;;;19.10;99.90;;;;;;5057252;28;20205;-77
2022/08/07 06:26:34;;;;;;;2.67;0.90;;;19.10;99.90;;;;;;5062426;28;20212;-78
2022/08/07 06:29:03;;;;;;;1.23;0.82;;;19.10;99.90;;;;;;5055356;28;20209;-78
2022/08/07 06:31:30;;;;;;;2.15;0.80;;;19.20;99.90;;;;;;5056046;28;20753;-79
2022/08/07 06:33:57;;;;;;;1.85;0.75;;;19.20;99.90;;;;;;5064416;28;20207;-74
2022/08/07 06:36:25;;;;;;;2.30;1.00;;;19.30;99.90;;;;;;5066315;28;20210;-76
2022/08/07 06:38:53;;;;;;;1.58;0.70;;;19.30;99.90;;;;;;5060712;28;20213;-77
2022/08/07 06:41:25;;;;;;;3.13;0.55;;;19.30;99.90;;;;;;5065592;28;20255;-77
2022/08/07 06:43:53;;;;;;;1.30;0.95;;;19.30;99.90;;;;;;5054684;28;20215;-76
2022/08/07 06:46:22;;;;;;;2.60;0.85;;;19.30;99.90;;;;;;5056526;28;20208;-78
2022/08/07 06:48:49;;;;;;;3.42;0.93;;;19.40;99.90;;;;;;5063177;28;20227;-79
2022/08/07 06:51:20;;;;;;;2.63;0.85;;;19.40;99.90;;;;;;5055602;28;20324;-78
2022/08/07 06:53:47;;;;;;;3.67;0.65;;;19.50;99.90;;;;;;5065202;28;20631;-74
2022/08/07 06:56:16;;;;;;;1.48;0.82;;;19.50;99.90;;;;;;5071141;28;20209;-76
2022/08/07 06:58:46;;;;;;;1.80;0.73;;;19.60;99.90;;;;;;5062699;28;20216;-76
2022/08/07 07:01:15;;;;;;;2.05;0.77;;;19.50;99.90;;;;;;5051280;28;20203;-74
2022/08/07 07:03:43;;;;;;;1.13;0.77;;;19.60;99.90;;;;;;5047516;28;20293;-73
2022/08/07 07:06:10;;;;;;;0.85;0.82;;;19.70;99.90;;;;;;5050035;28;20209;-71
2022/08/07 07:08:37;;;;;;;2.30;0.85;;;19.70;99.90;;;;;;5053866;28;20205;-73
2022/08/07 07:11:05;;;;;;;0.65;0.57;;;19.70;99.90;;;;;;5069651;28;20235;-74
2022/08/07 07:13:37;;;;;;;0.73;0.60;;;19.70;99.90;;;;;;5069135;28;20214;-76
2022/08/07 07:16:09;;;;;;;1.48;0.60;;;19.70;99.90;;;;;;5055090;28;20222;-74
2022/08/07 07:18:41;;;;;;;1.85;0.70;;;19.80;99.90;;;;;;5062519;28;20209;-75
2022/08/07 07:21:13;;;;;;;3.15;0.90;;;19.90;99.90;;;;;;5073618;28;20586;-75
2022/08/07 07:23:41;;;;;;;3.13;0.80;;;19.90;99.90;;;;;;5058464;28;20202;-69
2022/08/07 07:26:11;;;;;;;2.05;0.80;;;19.90;99.90;;;;;;5067158;28;20201;-69
2022/08/07 07:28:43;;;;;;;5.82;0.93;;;20.00;99.90;;;;;;5069930;28;20209;-71
2022/08/07 07:31:15;;;;;;;1.23;0.60;;;20.00;99.90;;;;;;5055772;28;20706;-69
2022/08/07 07:33:44;;;;;;;1.42;0.98;;;20.10;99.10;;;;;;5056835;28;20209;-70
2022/08/07 07:36:12;;;;;;;1.38;0.77;;;20.10;98.30;;;;;;5052904;28;20213;-69
2022/08/07 07:38:41;;;;;;;1.70;0.70;;;20.10;97.50;;;;;;5064304;28;20224;-68
2022/08/07 07:41:09;;;;;;;1.67;0.80;;;20.20;97.00;;;;;;5057450;28;20264;-71
2022/08/07 07:43:41;;;;;;;2.97;0.80;;;20.30;96.50;;;;;;5057339;28;20573;-68
2022/08/07 07:46:08;;;;;;;0.80;0.80;;;20.30;96.40;;;;;;5053564;28;20198;-68
2022/08/07 07:48:37;;;;;;;3.63;0.65;;;20.40;96.30;;;;;;5056052;28;20669;-71
2022/08/07 07:51:05;;;;;;;1.25;0.75;;;20.50;96.30;;;;;;5040845;28;20714;-74
2022/08/07 07:53:36;;;;;;;2.03;0.82;;;20.70;96.10;;;;;;5058729;28;20220;-73
2022/08/07 07:56:05;;;;;;;6.70;1.80;;;20.80;95.50;;;;;;5049131;28;20212;-71
2022/08/07 07:58:34;;;;;;;3.83;2.00;;;20.90;95.10;;;;;;5048308;28;20264;-71
2022/08/07 08:01:02;;;;;;;2.00;1.23;;;21.00;94.80;;;;;;5051482;28;20206;-71
2022/08/07 08:03:31;;;;;;;3.38;1.73;;;21.10;94.80;;;;;;5052899;28;20216;-71
2022/08/07 08:05:58;;;;;;;2.47;1.25;;;21.20;94.90;;;;;;5054089;28;20285;-72
2022/08/07 08:08:27;;;;;;;3.35;0.80;;;21.40;94.90;;;;;;5052688;28;20601;-72
2022/08/07 08:10:56;;;;;;;2.10;1.38;;;21.50;94.20;;;;;;5042852;28;20218;-70
2022/08/07 08:13:26;;;;;;;3.22;1.17;;;21.70;93.50;;;;;;5041743;28;20207;-71
2022/08/07 08:15:53;;;;;;;12.10;1.30;;;21.70;92.80;;;;;;5060822;28;20567;-70
2022/08/07 08:18:21;;;;;;;4.63;1.63;;;22.00;92.50;;;;;;5052230;28;20209;-70
2022/08/07 08:20:48;;;;;;;1.13;0.80;;;22.10;92.00;;;;;;5054154;28;20588;-70
2022/08/07 08:28:52;;;;;;;2.65;0.80;;;22.60;90.10;;;;;;5019101;28;20771;-73
2022/08/07 08:31:23;;;;;;;2.15;1.10;;;22.70;89.80;;;;;;5055907;28;20240;-72
2022/08/07 08:33:53;;;;;;;3.55;1.08;;;22.70;89.10;;;;;;5058017;28;20580;-68
2022/08/07 08:36:23;;;;;;;3.10;1.10;;;22.70;89.60;;;;;;5052109;28;20443;-70
2022/08/07 08:38:51;;;;;;;3.55;1.10;;;22.80;89.40;;;;;;5051839;28;20205;-72
2022/08/07 08:41:24;;;;;;;2.28;1.00;;;22.80;88.90;;;;;;5053932;28;20213;-72
2022/08/07 08:44:01;;;;;;;0.70;0.70;;;22.90;87.90;;;;;;5055692;28;20210;-71
2022/08/07 08:46:37;;;;;;;1.35;0.80;;;23.00;87.00;;;;;;5053637;28;20292;-72
2022/08/07 08:49:10;;;;;;;1.35;0.98;;;23.10;85.80;;;;;;5053327;28;20232;-71
2022/08/07 08:51:47;;;;;;;1.85;0.73;;;23.30;84.40;;;;;;5050543;28;20222;-71
2022/08/07 08:54:23;;;;;;;0.88;0.60;;;23.50;82.90;;;;;;5053264;28;20209;-72
2022/08/07 08:56:53;;;;;;;2.05;0.90;;;23.60;78.70;;;;;;5049089;28;20210;-72
2022/08/07 08:59:27;;;;;;;2.05;0.80;;;23.60;77.40;;;;;;5047549;28;20216;-71
2022/08/07 09:02:04;;;;;;;3.33;0.95;;;23.60;78.00;;;;;;5049704;28;20202;-72
2022/08/07 09:04:41;;;;;;;1.60;0.60;;;23.70;78.40;;;;;;5050612;28;20256;-71
2022/08/07 09:07:14;;;;;;;0.95;0.68;;;23.90;78.10;;;;;;5039510;28;20198;-71
2022/08/07 09:09:56;;;;;;;2.95;0.70;;;24.00;76.90;;;;;;5052761;28;20248;-72
2022/08/07 09:12:37;;;;;;;0.98;0.40;;;24.20;75.60;;;;;;5052632;28;20598;-71
2022/08/07 09:15:19;;;;;;;3.25;0.77;;;24.40;74.30;;;;;;5050935;28;20259;-71
2022/08/07 09:17:53;;;;;;;1.95;0.63;;;24.50;73.60;;;;;;5053751;28;20209;-72
2022/08/07 09:20:28;;;;;;;2.00;0.90;;;24.50;73.70;;;;;;5053353;28;20272;-71
2022/08/07 09:23:02;;;;;;;1.60;1.00;;;24.60;72.70;;;;;;5063514;28;20251;-71
2022/08/07 09:25:39;;;;;;;1.73;1.17;;;24.70;71.90;;;;;;5055808;28;20202;-72
2022/08/07 09:28:10;;;;;;;0.68;0.60;;;24.80;71.90;;;;;;5050402;28;20624;-71
2022/08/07 09:30:58;;;;;;;1.48;0.60;;;24.70;70.50;;;;;;5046552;28;20233;-71
2022/08/07 09:33:40;;;;;;;2.28;1.10;;;24.70;70.40;;;;;;5052205;28;20574;-71
2022/08/07 09:36:14;;;;;;;0.98;0.65;;;25.00;69.40;;;;;;5041298;28;20840;-72
2022/08/07 09:38:49;;;;;;;1.65;0.73;;;25.40;67.80;;;;;;5045054;28;20198;-71
2022/08/07 09:41:28;;;;;;;2.17;0.90;;;25.60;66.70;;;;;;5049638;28;20204;-71
2022/08/07 09:44:05;;;;;;;2.42;0.90;;;25.90;66.30;;;;;;5057548;28;20209;-71
2022/08/07 09:46:43;;;;;;;1.48;0.80;;;26.20;65.30;;;;;;5051519;28;20219;-72
2022/08/07 09:49:25;;;;;;;1.35;0.80;;;26.50;64.60;;;;;;5052447;28;20202;-70
2022/08/07 09:52:01;;;;;;;4.00;0.82;;;26.60;61.30;;;;;;5050838;28;20217;-71
2022/08/07 09:54:34;;;;;;;1.73;0.80;;;26.40;63.20;;;;;;5047110;28;20216;-71
2022/08/07 09:57:29;;;;;;;2.55;0.82;;;26.60;62.70;;;;;;5045362;28;20232;-71
2022/08/07 10:00:08;;;;;;;1.45;0.70;;;26.90;61.50;;;;;;5045191;28;20209;-71
2022/08/07 10:02:51;;;;;;;2.55;1.05;;;26.90;61.20;;;;;;5042164;28;20240;-72
2022/08/07 10:05:46;;;;;;;1.13;0.50;;;27.00;61.00;;;;;;5052342;28;20255;-71
2022/08/07 10:08:37;;;;;;;1.88;0.70;;;27.10;59.60;;;;;;5056203;28;20210;-71
2022/08/07 10:11:11;;;;;;;1.80;0.80;;;27.00;58.80;;;;;;5052389;28;20205;-71
2022/08/07 10:13:48;;;;;;;1.05;0.50;;;27.20;58.50;;;;;;5048698;28;20218;-72
2022/08/07 10:16:36;;;;;;;1.50;0.80;;;27.40;57.60;;;;;;5052439;28;20201;-72
2022/08/07 10:19:39;;;;;;;0.65;0.65;;;27.80;57.10;;;;;;5048411;28;20221;-71
2022/08/07 10:22:32;;;;;;;0.85;0.50;;;27.80;55.70;;;;;;5052330;28;20257;-71
2022/08/07 10:25:16;;;;;;;2.00;0.73;;;27.50;56.00;;;;;;5052740;28;20680;-71
2022/08/07 10:27:53;;;;;;;3.22;1.42;;;27.70;56.10;;;;;;5039504;28;20535;-73
2022/08/07 10:30:27;;;;;;;0.68;0.68;;;27.80;56.20;;;;;;5052946;28;20208;-71
2022/08/07 10:33:17;;;;;;;1.15;0.70;;;27.90;55.30;;;;;;5065181;28;20595;-72
2022/08/07 10:35:55;;;;;;;1.77;0.95;;;27.70;55.40;;;;;;5046250;28;20213;-71
2022/08/07 10:38:38;;;;;;;1.08;0.55;;;27.60;55.50;;;;;;5050465;28;20206;-71
2022/08/07 10:41:11;;;;;;;1.05;0.60;;;27.60;55.40;;;;;;5052667;28;20205;-72
2022/08/07 10:43:44;;;;;;;2.00;0.80;;;27.70;54.90;;;;;;5063145;28;20626;-71
2022/08/07 10:46:17;;;;;;;2.72;0.88;;;27.80;54.70;;;;;;5038529;28;20245;-72
2022/08/07 10:48:55;;;;;;;0.82;0.47;;;28.00;54.70;;;;;;5052264;28;20324;-71
2022/08/07 10:51:26;;;;;;;0.80;0.40;;;28.20;53.60;;;;;;5051067;28;20573;-72
2022/08/07 10:54:01;;;;;;;1.90;0.45;;;28.40;53.40;;;;;;5062751;28;20713;-71
2022/08/07 10:56:36;;;;;;;2.47;0.65;;;28.70;52.40;;;;;;5060122;28;20450;-71
2022/08/07 10:59:16;;;;;;;1.20;0.55;;;28.70;51.80;;;;;;5055654;28;20213;-71
2022/08/07 11:01:52;;;;;;;1.17;0.68;;;28.60;51.80;;;;;;5056271;28;20572;-73
2022/08/07 11:04:37;;;;;;;4.78;0.88;;;28.50;50.90;;;;;;5056396;28;20615;-72
2022/08/07 11:07:13;;;;;;;1.20;0.88;;;28.10;51.50;;;;;;5053221;28;20677;-71
2022/08/07 11:09:48;;;;;;;1.50;0.52;;;28.00;51.50;;;;;;5053211;28;20205;-71
2022/08/07 11:12:18;;;;;;;1.88;0.73;;;28.00;51.50;;;;;;5056328;28;20578;-72
2022/08/07 11:14:52;;;;;;;2.28;0.40;;;28.00;51.20;;;;;;5056149;28;20205;-71
2022/08/07 11:17:30;;;;;;;0.98;0.88;;;28.10;51.30;;;;;;5055515;28;20274;-71
2022/08/07 11:20:04;;;;;;;1.77;0.57;;;28.30;51.60;;;;;;5055624;28;20210;-71
2022/08/07 11:22:36;;;;;;;0.82;0.52;;;28.20;51.90;;;;;;5046756;28;20243;-71
2022/08/07 11:25:10;;;;;;;0.73;0.60;;;28.30;51.60;;;;;;5046412;28;20203;-71
2022/08/07 11:27:48;;;;;;;0.70;0.70;;;28.30;51.50;;;;;;5042241;28;20658;-71
2022/08/07 11:30:19;;;;;;;0.82;0.50;;;28.30;51.10;;;;;;5070597;28;20201;-70
2022/08/07 11:32:56;;;;;;;1.38;0.60;;;28.30;51.20;;;;;;5059071;28;20245;-72
2022/08/07 11:35:28;;;;;;;1.02;0.55;;;28.50;50.70;;;;;;5065301;28;20209;-72
2022/08/07 11:38:09;;;;;;;0.57;0.57;;;28.50;50.40;;;;;;5056630;28;20689;-72
2022/08/07 11:40:47;;;;;;;1.65;0.57;;;28.60;50.20;;;;;;5053882;28;20206;-71
2022/08/07 11:43:19;;;;;;;0.40;0.40;;;28.70;49.90;;;;;;5054464;28;20625;-71
2022/08/07 11:46:04;;;;;;;2.35;0.40;;;28.80;49.40;;;;;;5054902;28;20209;-71
2022/08/07 11:48:52;;;;;;;1.20;0.60;;;28.90;49.00;;;;;;5062505;28;20618;-72
2022/08/07 11:51:33;;;;;;;1.02;0.40;;;28.90;49.20;;;;;;5073627;28;20417;-72
2022/08/07 11:54:12;;;;;;;0.75;0.45;;;29.00;47.90;;;;;;5054616;28;20221;-72
2022/08/07 11:56:52;;;;;;;0.75;0.40;;;29.00;48.50;;;;;;5054032;28;20292;-71
2022/08/07 11:59:35;;;;;;;0.70;0.57;;;28.90;47.60;;;;;;5053181;28;20573;-73
2022/08/07 12:02:15;;;;;;;0.85;0.60;;;28.90;48.30;;;;;;5054811;28;20433;-72
2022/08/07 12:05:15;;;;;;;1.63;0.60;;;28.60;48.90;;;;;;5054339;28;20210;-71
2022/08/07 12:07:51;;;;;;;0.98;0.60;;;28.60;47.60;;;;;;5018668;28;20218;-71
2022/08/07 12:10:25;;;;;;;0.68;0.68;;;28.60;47.90;;;;;;5054375;28;20748;-72
2022/08/07 12:12:56;;;;;;;1.35;0.60;;;28.50;48.30;;;;;;5048740;28;20218;-72
2022/08/07 12:15:26;;;;;;;1.83;0.70;;;28.60;48.50;;;;;;5060796;28;20208;-72
2022/08/07 12:17:57;;;;;;;0.40;0.40;;;28.70;48.10;;;;;;5055484;28;20583;-71
2022/08/07 12:20:30;;;;;;;3.10;1.48;;;28.80;47.90;;;;;;5051972;28;20596;-69
2022/08/07 12:23:29;;;;;;;1.30;1.08;;;28.60;47.90;;;;;;5058772;28;20217;-69
2022/08/07 12:26:01;;;;;;;1.17;0.70;;;28.40;47.60;;;;;;5053321;28;20219;-71
2022/08/07 12:28:36;;;;;;;1.92;0.80;;;28.40;47.70;;;;;;5051572;28;20296;-71
2022/08/07 12:31:08;;;;;;;2.35;0.75;;;28.50;47.70;;;;;;5048199;28;20248;-70
2022/08/07 12:33:36;;;;;;;1.20;0.52;;;28.50;47.90;;;;;;5044579;28;20246;-71
2022/08/07 12:36:05;;;;;;;3.65;0.65;;;28.60;47.70;;;;;;5048659;28;20225;-69
2022/08/07 12:38:34;;;;;;;1.55;0.57;;;28.50;48.10;;;;;;5053893;28;20210;-72
2022/08/07 12:41:03;;;;;;;0.52;0.40;;;28.40;48.30;;;;;;5052209;28;20266;-73
2022/08/07 12:43:32;;;;;;;4.80;0.70;;;28.40;48.10;;;;;;5052814;28;20210;-72
2022/08/07 12:46:12;;;;;;;2.63;0.70;;;28.20;48.50;;;;;;5063098;28;20566;-71
2022/08/07 12:48:47;;;;;;;1.50;0.60;;;28.10;49.70;;;;;;5045715;28;20685;-69
2022/08/07 12:51:16;;;;;;;0.85;0.50;;;27.70;50.50;;;;;;5048846;28;20736;-71
2022/08/07 12:53:53;;;;;;;1.42;1.00;;;27.50;50.60;;;;;;5051876;28;20566;-70
2022/08/07 12:56:26;;;;;;;2.47;0.60;;;27.10;50.80;;;;;;5052691;28;20207;-71
2022/08/07 12:58:53;;;;;;;1.48;0.45;;;27.00;51.40;;;;;;5057751;28;20210;-70
2022/08/07 13:01:30;;;;;;;1.38;0.93;;;26.90;51.60;;;;;;5065444;28;20614;-71
2022/08/07 13:04:15;;;;;;;1.85;0.68;;;26.70;51.70;;;;;;5059846;28;20198;-71
2022/08/07 13:07:02;;;;;;;0.85;0.68;;;26.80;51.90;;;;;;5048730;28;20206;-70
2022/08/07 13:09:49;;;;;;;1.50;0.65;;;26.90;51.60;;;;;;5055646;28;20212;-72
2022/08/07 13:12:26;;;;;;;2.45;0.50;;;26.80;52.00;;;;;;5058601;28;20194;-71
2022/08/07 13:15:01;;;;;;;2.25;0.70;;;26.80;52.00;;;;;;5052427;28;20217;-71
2022/08/07 13:17:38;;;;;;;0.70;0.70;;;26.90;52.00;;;;;;5052924;28;20220;-71